sensor_id;sensor_type;location;lat;lon;timestamp;P1;durP1;ratioP1;P2;durP2;ratioP2
43835;SDS011;39345;43.964;25.340;2022-12-07T00:01:20;42.88;;;22.33;;
43835;SDS011;39345;43.964;25.340;2022-12-07T00:03:49;45.88;;;22.98;;
43835;SDS011;39345;43.964;25.340;2022-12-07T00:06:17;44.65;;;23.30;;
43835;SDS011;39345;43.964;25.340;2022-12-07T00:08:45;44.58;;;22.40;;
43835;SDS011;39345;43.964;25.340;2022-12-07T00:11:14;47.13;;;22.88;;
43835;SDS011;39345;43.964;25.340;2022-12-07T00:13:42;48.85;;;23.52;;
43835;SDS011;39345;43.964;25.340;2022-12-07T00:16:16;48.08;;;24.02;;
43835;SDS011;39345;43.964;25.340;2022-12-07T00:18:44;50.10;;;24.40;;
43835;SDS011;39345;43.964;25.340;2022-12-07T00:21:13;48.35;;;24.10;;
43835;SDS011;39345;43.964;25.340;2022-12-07T00:23:41;45.58;;;24.15;;
43835;SDS011;39345;43.964;25.340;2022-12-07T00:26:14;50.28;;;24.77;;
43835;SDS011;39345;43.964;25.340;2022-12-07T00:28:49;47.47;;;25.00;;
43835;SDS011;39345;43.964;25.340;2022-12-07T00:31:18;48.80;;;24.55;;
43835;SDS011;39345;43.964;25.340;2022-12-07T00:33:46;55.08;;;24.85;;
43835;SDS011;39345;43.964;25.340;2022-12-07T00:36:14;49.45;;;24.60;;
43835;SDS011;39345;43.964;25.340;2022-12-07T00:38:47;50.70;;;24.27;;
43835;SDS011;39345;43.964;25.340;2022-12-07T00:41:18;53.92;;;25.95;;
43835;SDS011;39345;43.964;25.340;2022-12-07T00:43:46;55.60;;;26.38;;
43835;SDS011;39345;43.964;25.340;2022-12-07T00:46:14;52.33;;;27.52;;
43835;SDS011;39345;43.964;25.340;2022-12-07T00:48:42;52.13;;;26.45;;
43835;SDS011;39345;43.964;25.340;2022-12-07T00:51:10;58.10;;;27.10;;
43835;SDS011;39345;43.964;25.340;2022-12-07T00:53:38;54.85;;;25.98;;
43835;SDS011;39345;43.964;25.340;2022-12-07T00:56:08;53.92;;;25.42;;
43835;SDS011;39345;43.964;25.340;2022-12-07T00:58:36;50.42;;;25.67;;
43835;SDS011;39345;43.964;25.340;2022-12-07T01:01:04;51.97;;;24.40;;
43835;SDS011;39345;43.964;25.340;2022-12-07T01:03:32;51.33;;;24.83;;
43835;SDS011;39345;43.964;25.340;2022-12-07T01:06:00;59.25;;;27.70;;
43835;SDS011;39345;43.964;25.340;2022-12-07T01:08:28;61.72;;;27.85;;
43835;SDS011;39345;43.964;25.340;2022-12-07T01:11:06;56.50;;;25.33;;
43835;SDS011;39345;43.964;25.340;2022-12-07T01:13:34;49.05;;;23.40;;
43835;SDS011;39345;43.964;25.340;2022-12-07T01:16:03;52.95;;;24.35;;
43835;SDS011;39345;43.964;25.340;2022-12-07T01:18:33;56.33;;;25.42;;
43835;SDS011;39345;43.964;25.340;2022-12-07T01:21:09;51.30;;;23.88;;
43835;SDS011;39345;43.964;25.340;2022-12-07T01:23:36;57.70;;;22.83;;
43835;SDS011;39345;43.964;25.340;2022-12-07T01:26:05;49.70;;;22.95;;
43835;SDS011;39345;43.964;25.340;2022-12-07T01:28:33;53.63;;;23.23;;
43835;SDS011;39345;43.964;25.340;2022-12-07T01:31:02;52.42;;;22.95;;
43835;SDS011;39345;43.964;25.340;2022-12-07T01:33:31;53.55;;;23.02;;
43835;SDS011;39345;43.964;25.340;2022-12-07T01:36:03;53.70;;;23.27;;
43835;SDS011;39345;43.964;25.340;2022-12-07T01:38:31;54.08;;;22.88;;
43835;SDS011;39345;43.964;25.340;2022-12-07T01:40:59;48.95;;;22.55;;
43835;SDS011;39345;43.964;25.340;2022-12-07T01:43:28;48.40;;;22.52;;
43835;SDS011;39345;43.964;25.340;2022-12-07T01:45:55;52.00;;;22.45;;
43835;SDS011;39345;43.964;25.340;2022-12-07T01:48:44;51.53;;;21.73;;
43835;SDS011;39345;43.964;25.340;2022-12-07T01:51:11;48.75;;;22.30;;
43835;SDS011;39345;43.964;25.340;2022-12-07T01:53:42;44.97;;;22.27;;
43835;SDS011;39345;43.964;25.340;2022-12-07T01:56:11;48.80;;;21.50;;
43835;SDS011;39345;43.964;25.340;2022-12-07T01:58:41;50.67;;;23.65;;
43835;SDS011;39345;43.964;25.340;2022-12-07T02:01:08;52.00;;;22.00;;
43835;SDS011;39345;43.964;25.340;2022-12-07T02:03:37;54.47;;;24.35;;
43835;SDS011;39345;43.964;25.340;2022-12-07T02:06:05;52.70;;;22.65;;
43835;SDS011;39345;43.964;25.340;2022-12-07T02:08:34;48.22;;;21.65;;
43835;SDS011;39345;43.964;25.340;2022-12-07T02:11:02;50.35;;;22.45;;
43835;SDS011;39345;43.964;25.340;2022-12-07T02:13:31;51.88;;;21.95;;
43835;SDS011;39345;43.964;25.340;2022-12-07T02:16:15;49.60;;;22.10;;
43835;SDS011;39345;43.964;25.340;2022-12-07T02:21:41;49.47;;;22.63;;
43835;SDS011;39345;43.964;25.340;2022-12-07T02:29:27;51.40;;;23.20;;
43835;SDS011;39345;43.964;25.340;2022-12-07T02:32:40;46.20;;;22.15;;
43835;SDS011;39345;43.964;25.340;2022-12-07T02:34:51;43.85;;;20.52;;
43835;SDS011;39345;43.964;25.340;2022-12-07T02:37:26;45.63;;;21.02;;
43835;SDS011;39345;43.964;25.340;2022-12-07T02:40:14;47.20;;;21.67;;
43835;SDS011;39345;43.964;25.340;2022-12-07T02:42:49;48.63;;;21.20;;
43835;SDS011;39345;43.964;25.340;2022-12-07T02:45:20;53.47;;;22.38;;
43835;SDS011;39345;43.964;25.340;2022-12-07T02:47:48;48.80;;;21.98;;
43835;SDS011;39345;43.964;25.340;2022-12-07T02:50:19;53.38;;;21.85;;
43835;SDS011;39345;43.964;25.340;2022-12-07T02:52:47;59.35;;;21.35;;
43835;SDS011;39345;43.964;25.340;2022-12-07T02:55:15;56.78;;;22.45;;
43835;SDS011;39345;43.964;25.340;2022-12-07T03:00:13;64.18;;;23.27;;
43835;SDS011;39345;43.964;25.340;2022-12-07T03:05:33;67.45;;;22.63;;
43835;SDS011;39345;43.964;25.340;2022-12-07T03:15:29;76.78;;;24.85;;
43835;SDS011;39345;43.964;25.340;2022-12-07T03:17:58;84.93;;;28.90;;
43835;SDS011;39345;43.964;25.340;2022-12-07T03:20:27;83.43;;;27.98;;
43835;SDS011;39345;43.964;25.340;2022-12-07T03:22:56;84.60;;;28.48;;
43835;SDS011;39345;43.964;25.340;2022-12-07T03:25:24;81.53;;;27.85;;
43835;SDS011;39345;43.964;25.340;2022-12-07T03:27:54;79.03;;;28.33;;
43835;SDS011;39345;43.964;25.340;2022-12-07T03:30:23;78.05;;;28.85;;
43835;SDS011;39345;43.964;25.340;2022-12-07T03:38:35;89.03;;;30.02;;
43835;SDS011;39345;43.964;25.340;2022-12-07T03:43:19;71.80;;;27.63;;
43835;SDS011;39345;43.964;25.340;2022-12-07T03:45:51;77.43;;;28.85;;
43835;SDS011;39345;43.964;25.340;2022-12-07T03:48:27;85.78;;;29.80;;
43835;SDS011;39345;43.964;25.340;2022-12-07T03:51:06;82.93;;;30.63;;
43835;SDS011;39345;43.964;25.340;2022-12-07T03:56:09;76.43;;;26.85;;
43835;SDS011;39345;43.964;25.340;2022-12-07T03:58:37;80.68;;;29.25;;
43835;SDS011;39345;43.964;25.340;2022-12-07T04:01:05;86.90;;;29.58;;
43835;SDS011;39345;43.964;25.340;2022-12-07T04:03:33;71.65;;;27.63;;
43835;SDS011;39345;43.964;25.340;2022-12-07T04:06:00;74.78;;;28.25;;
43835;SDS011;39345;43.964;25.340;2022-12-07T04:08:28;72.45;;;26.02;;
43835;SDS011;39345;43.964;25.340;2022-12-07T04:10:55;70.20;;;28.00;;
43835;SDS011;39345;43.964;25.340;2022-12-07T04:13:23;73.55;;;27.23;;
43835;SDS011;39345;43.964;25.340;2022-12-07T04:15:50;68.20;;;27.40;;
43835;SDS011;39345;43.964;25.340;2022-12-07T04:18:18;75.55;;;28.13;;
43835;SDS011;39345;43.964;25.340;2022-12-07T04:20:45;70.32;;;27.35;;
43835;SDS011;39345;43.964;25.340;2022-12-07T04:23:13;113.00;;;31.02;;
43835;SDS011;39345;43.964;25.340;2022-12-07T04:25:40;483.38;;;80.45;;
43835;SDS011;39345;43.964;25.340;2022-12-07T04:28:08;133.82;;;36.72;;
43835;SDS011;39345;43.964;25.340;2022-12-07T04:30:35;280.55;;;50.03;;
43835;SDS011;39345;43.964;25.340;2022-12-07T04:33:02;432.55;;;73.85;;
43835;SDS011;39345;43.964;25.340;2022-12-07T04:35:30;540.30;;;92.90;;
43835;SDS011;39345;43.964;25.340;2022-12-07T04:37:57;123.90;;;38.72;;
43835;SDS011;39345;43.964;25.340;2022-12-07T04:40:25;341.17;;;69.07;;
43835;SDS011;39345;43.964;25.340;2022-12-07T04:42:52;1929.80;;;282.70;;
43835;SDS011;39345;43.964;25.340;2022-12-07T04:45:19;588.38;;;98.85;;
43835;SDS011;39345;43.964;25.340;2022-12-07T04:47:47;446.02;;;88.40;;
43835;SDS011;39345;43.964;25.340;2022-12-07T04:50:14;391.90;;;208.60;;
43835;SDS011;39345;43.964;25.340;2022-12-07T04:52:42;558.88;;;248.48;;
43835;SDS011;39345;43.964;25.340;2022-12-07T04:55:09;543.65;;;257.90;;
43835;SDS011;39345;43.964;25.340;2022-12-07T04:57:37;371.17;;;163.98;;
43835;SDS011;39345;43.964;25.340;2022-12-07T05:00:04;90.50;;;30.48;;
43835;SDS011;39345;43.964;25.340;2022-12-07T05:02:32;250.63;;;101.68;;
43835;SDS011;39345;43.964;25.340;2022-12-07T05:04:59;125.57;;;46.55;;
43835;SDS011;39345;43.964;25.340;2022-12-07T05:07:27;287.17;;;126.25;;
43835;SDS011;39345;43.964;25.340;2022-12-07T05:09:54;163.70;;;63.75;;
43835;SDS011;39345;43.964;25.340;2022-12-07T05:12:22;250.07;;;106.05;;
43835;SDS011;39345;43.964;25.340;2022-12-07T05:14:49;137.15;;;56.10;;
43835;SDS011;39345;43.964;25.340;2022-12-07T05:17:17;212.25;;;87.38;;
43835;SDS011;39345;43.964;25.340;2022-12-07T05:19:44;110.65;;;43.90;;
43835;SDS011;39345;43.964;25.340;2022-12-07T05:22:12;83.68;;;33.25;;
43835;SDS011;39345;43.964;25.340;2022-12-07T05:24:39;115.78;;;48.38;;
43835;SDS011;39345;43.964;25.340;2022-12-07T05:27:07;95.80;;;42.78;;
43835;SDS011;39345;43.964;25.340;2022-12-07T05:29:34;122.00;;;55.20;;
43835;SDS011;39345;43.964;25.340;2022-12-07T05:32:02;123.32;;;55.38;;
43835;SDS011;39345;43.964;25.340;2022-12-07T05:34:29;127.82;;;55.78;;
43835;SDS011;39345;43.964;25.340;2022-12-07T05:36:57;100.30;;;42.30;;
43835;SDS011;39345;43.964;25.340;2022-12-07T05:39:24;154.13;;;67.78;;
43835;SDS011;39345;43.964;25.340;2022-12-07T05:41:52;81.22;;;32.85;;
43835;SDS011;39345;43.964;25.340;2022-12-07T05:44:38;99.85;;;42.30;;
43835;SDS011;39345;43.964;25.340;2022-12-07T05:47:06;103.45;;;41.97;;
43835;SDS011;39345;43.964;25.340;2022-12-07T05:49:33;118.20;;;45.72;;
43835;SDS011;39345;43.964;25.340;2022-12-07T05:52:01;71.75;;;27.05;;
43835;SDS011;39345;43.964;25.340;2022-12-07T05:54:29;59.75;;;24.13;;
43835;SDS011;39345;43.964;25.340;2022-12-07T05:56:56;80.80;;;36.05;;
43835;SDS011;39345;43.964;25.340;2022-12-07T05:59:24;61.55;;;25.70;;
43835;SDS011;39345;43.964;25.340;2022-12-07T06:01:54;55.42;;;23.65;;
43835;SDS011;39345;43.964;25.340;2022-12-07T06:04:23;58.80;;;24.13;;
43835;SDS011;39345;43.964;25.340;2022-12-07T06:06:51;73.82;;;30.45;;
43835;SDS011;39345;43.964;25.340;2022-12-07T06:09:19;86.93;;;34.65;;
43835;SDS011;39345;43.964;25.340;2022-12-07T06:11:47;74.13;;;27.65;;
43835;SDS011;39345;43.964;25.340;2022-12-07T06:14:33;68.40;;;28.35;;
43835;SDS011;39345;43.964;25.340;2022-12-07T06:17:01;59.92;;;24.98;;
43835;SDS011;39345;43.964;25.340;2022-12-07T06:19:29;82.72;;;32.97;;
43835;SDS011;39345;43.964;25.340;2022-12-07T06:21:56;54.15;;;22.60;;
43835;SDS011;39345;43.964;25.340;2022-12-07T06:24:24;73.65;;;28.80;;
43835;SDS011;39345;43.964;25.340;2022-12-07T06:26:52;79.18;;;30.98;;
43835;SDS011;39345;43.964;25.340;2022-12-07T06:29:19;72.95;;;28.95;;
43835;SDS011;39345;43.964;25.340;2022-12-07T06:31:48;56.50;;;23.05;;
43835;SDS011;39345;43.964;25.340;2022-12-07T06:34:16;57.38;;;23.42;;
43835;SDS011;39345;43.964;25.340;2022-12-07T06:36:45;45.90;;;21.80;;
43835;SDS011;39345;43.964;25.340;2022-12-07T06:39:20;44.22;;;21.95;;
43835;SDS011;39345;43.964;25.340;2022-12-07T06:41:48;41.80;;;20.00;;
43835;SDS011;39345;43.964;25.340;2022-12-07T06:44:15;39.85;;;21.05;;
43835;SDS011;39345;43.964;25.340;2022-12-07T06:46:43;39.47;;;19.80;;
43835;SDS011;39345;43.964;25.340;2022-12-07T06:49:10;41.75;;;22.10;;
43835;SDS011;39345;43.964;25.340;2022-12-07T06:51:38;39.58;;;20.13;;
43835;SDS011;39345;43.964;25.340;2022-12-07T06:54:12;45.17;;;21.20;;
43835;SDS011;39345;43.964;25.340;2022-12-07T06:56:40;37.35;;;20.40;;
43835;SDS011;39345;43.964;25.340;2022-12-07T06:59:07;39.55;;;21.50;;
43835;SDS011;39345;43.964;25.340;2022-12-07T07:01:35;32.75;;;18.92;;
43835;SDS011;39345;43.964;25.340;2022-12-07T07:04:03;36.72;;;19.63;;
43835;SDS011;39345;43.964;25.340;2022-12-07T07:06:31;30.92;;;17.33;;
43835;SDS011;39345;43.964;25.340;2022-12-07T07:08:58;30.10;;;17.00;;
43835;SDS011;39345;43.964;25.340;2022-12-07T07:11:26;29.67;;;17.45;;
43835;SDS011;39345;43.964;25.340;2022-12-07T07:13:53;30.25;;;15.82;;
43835;SDS011;39345;43.964;25.340;2022-12-07T07:16:23;30.63;;;15.55;;
43835;SDS011;39345;43.964;25.340;2022-12-07T07:18:50;32.83;;;15.68;;
43835;SDS011;39345;43.964;25.340;2022-12-07T07:21:18;29.70;;;16.50;;
43835;SDS011;39345;43.964;25.340;2022-12-07T07:23:45;30.33;;;15.38;;
43835;SDS011;39345;43.964;25.340;2022-12-07T07:26:13;30.48;;;15.43;;
43835;SDS011;39345;43.964;25.340;2022-12-07T07:28:48;29.42;;;15.02;;
43835;SDS011;39345;43.964;25.340;2022-12-07T07:31:15;36.33;;;16.50;;
43835;SDS011;39345;43.964;25.340;2022-12-07T07:33:43;35.05;;;18.08;;
43835;SDS011;39345;43.964;25.340;2022-12-07T07:36:12;31.77;;;16.58;;
43835;SDS011;39345;43.964;25.340;2022-12-07T07:38:39;38.70;;;17.73;;
43835;SDS011;39345;43.964;25.340;2022-12-07T07:41:07;34.67;;;17.02;;
43835;SDS011;39345;43.964;25.340;2022-12-07T07:43:34;37.60;;;18.63;;
43835;SDS011;39345;43.964;25.340;2022-12-07T07:46:01;40.45;;;17.60;;
43835;SDS011;39345;43.964;25.340;2022-12-07T07:48:29;35.13;;;18.58;;
43835;SDS011;39345;43.964;25.340;2022-12-07T07:50:57;36.75;;;16.33;;
43835;SDS011;39345;43.964;25.340;2022-12-07T07:53:24;37.30;;;18.35;;
43835;SDS011;39345;43.964;25.340;2022-12-07T07:55:52;36.00;;;16.95;;
43835;SDS011;39345;43.964;25.340;2022-12-07T07:58:20;31.50;;;16.23;;
43835;SDS011;39345;43.964;25.340;2022-12-07T08:00:48;37.08;;;18.20;;
43835;SDS011;39345;43.964;25.340;2022-12-07T08:03:15;38.40;;;18.52;;
43835;SDS011;39345;43.964;25.340;2022-12-07T08:05:43;37.83;;;18.10;;
43835;SDS011;39345;43.964;25.340;2022-12-07T08:08:10;38.03;;;17.95;;
43835;SDS011;39345;43.964;25.340;2022-12-07T08:10:38;36.13;;;18.00;;
43835;SDS011;39345;43.964;25.340;2022-12-07T08:13:06;36.10;;;17.75;;
43835;SDS011;39345;43.964;25.340;2022-12-07T08:15:43;35.13;;;17.13;;
43835;SDS011;39345;43.964;25.340;2022-12-07T08:18:11;32.35;;;16.15;;
43835;SDS011;39345;43.964;25.340;2022-12-07T08:20:39;34.70;;;16.63;;
43835;SDS011;39345;43.964;25.340;2022-12-07T08:23:07;29.15;;;14.90;;
43835;SDS011;39345;43.964;25.340;2022-12-07T08:25:35;29.25;;;14.55;;
43835;SDS011;39345;43.964;25.340;2022-12-07T08:28:03;31.20;;;14.98;;
43835;SDS011;39345;43.964;25.340;2022-12-07T08:30:30;27.90;;;14.13;;
43835;SDS011;39345;43.964;25.340;2022-12-07T08:32:58;35.25;;;17.83;;
43835;SDS011;39345;43.964;25.340;2022-12-07T08:35:26;35.75;;;16.98;;
43835;SDS011;39345;43.964;25.340;2022-12-07T08:37:53;33.45;;;16.73;;
43835;SDS011;39345;43.964;25.340;2022-12-07T08:40:23;34.95;;;15.85;;
43835;SDS011;39345;43.964;25.340;2022-12-07T08:42:51;32.72;;;16.15;;
43835;SDS011;39345;43.964;25.340;2022-12-07T08:45:19;32.95;;;16.00;;
43835;SDS011;39345;43.964;25.340;2022-12-07T08:50:20;32.78;;;15.15;;
43835;SDS011;39345;43.964;25.340;2022-12-07T08:52:48;32.08;;;16.17;;
43835;SDS011;39345;43.964;25.340;2022-12-07T08:55:16;29.65;;;16.27;;
43835;SDS011;39345;43.964;25.340;2022-12-07T08:57:43;32.00;;;16.08;;
43835;SDS011;39345;43.964;25.340;2022-12-07T09:00:11;32.13;;;16.17;;
43835;SDS011;39345;43.964;25.340;2022-12-07T09:02:38;34.20;;;16.00;;
43835;SDS011;39345;43.964;25.340;2022-12-07T09:05:06;29.63;;;15.30;;
43835;SDS011;39345;43.964;25.340;2022-12-07T09:10:09;30.55;;;15.05;;
43835;SDS011;39345;43.964;25.340;2022-12-07T09:12:36;32.47;;;15.82;;
43835;SDS011;39345;43.964;25.340;2022-12-07T09:15:04;33.67;;;16.90;;
43835;SDS011;39345;43.964;25.340;2022-12-07T09:17:33;35.30;;;17.55;;
43835;SDS011;39345;43.964;25.340;2022-12-07T09:20:00;31.20;;;16.25;;
43835;SDS011;39345;43.964;25.340;2022-12-07T09:22:29;33.15;;;16.42;;
43835;SDS011;39345;43.964;25.340;2022-12-07T09:24:57;30.02;;;16.30;;
43835;SDS011;39345;43.964;25.340;2022-12-07T09:27:25;33.40;;;16.70;;
43835;SDS011;39345;43.964;25.340;2022-12-07T09:29:52;28.95;;;15.48;;
43835;SDS011;39345;43.964;25.340;2022-12-07T09:32:20;30.15;;;16.52;;
43835;SDS011;39345;43.964;25.340;2022-12-07T09:34:48;23.58;;;12.40;;
43835;SDS011;39345;43.964;25.340;2022-12-07T09:37:16;27.15;;;15.32;;
43835;SDS011;39345;43.964;25.340;2022-12-07T09:39:43;27.92;;;14.50;;
43835;SDS011;39345;43.964;25.340;2022-12-07T09:42:35;28.63;;;14.52;;
43835;SDS011;39345;43.964;25.340;2022-12-07T09:45:04;29.83;;;15.75;;
43835;SDS011;39345;43.964;25.340;2022-12-07T09:47:32;28.23;;;16.05;;
43835;SDS011;39345;43.964;25.340;2022-12-07T09:50:10;41.10;;;19.60;;
43835;SDS011;39345;43.964;25.340;2022-12-07T09:52:39;131.90;;;30.75;;
43835;SDS011;39345;43.964;25.340;2022-12-07T09:55:09;349.75;;;71.28;;
43835;SDS011;39345;43.964;25.340;2022-12-07T09:57:37;969.50;;;258.50;;
43835;SDS011;39345;43.964;25.340;2022-12-07T10:00:13;670.63;;;287.45;;
43835;SDS011;39345;43.964;25.340;2022-12-07T10:02:43;446.30;;;119.85;;
43835;SDS011;39345;43.964;25.340;2022-12-07T10:05:16;174.32;;;42.05;;
43835;SDS011;39345;43.964;25.340;2022-12-07T10:07:50;73.75;;;25.13;;
43835;SDS011;39345;43.964;25.340;2022-12-07T10:10:19;21.88;;;12.13;;
43835;SDS011;39345;43.964;25.340;2022-12-07T10:12:58;128.15;;;37.05;;
43835;SDS011;39345;43.964;25.340;2022-12-07T10:21:15;32.42;;;16.30;;
43835;SDS011;39345;43.964;25.340;2022-12-07T10:23:58;34.22;;;16.80;;
43835;SDS011;39345;43.964;25.340;2022-12-07T10:28:55;32.25;;;16.58;;
43835;SDS011;39345;43.964;25.340;2022-12-07T10:31:23;33.67;;;17.58;;
43835;SDS011;39345;43.964;25.340;2022-12-07T10:36:22;36.08;;;19.02;;
43835;SDS011;39345;43.964;25.340;2022-12-07T10:38:52;30.45;;;16.15;;
43835;SDS011;39345;43.964;25.340;2022-12-07T10:41:19;28.98;;;15.60;;
43835;SDS011;39345;43.964;25.340;2022-12-07T10:43:51;32.40;;;15.70;;
43835;SDS011;39345;43.964;25.340;2022-12-07T10:56:46;30.70;;;15.88;;
43835;SDS011;39345;43.964;25.340;2022-12-07T10:59:28;32.17;;;16.38;;
43835;SDS011;39345;43.964;25.340;2022-12-07T11:02:07;29.23;;;15.63;;
43835;SDS011;39345;43.964;25.340;2022-12-07T11:10:14;26.30;;;15.45;;
43835;SDS011;39345;43.964;25.340;2022-12-07T11:15:14;32.33;;;16.33;;
43835;SDS011;39345;43.964;25.340;2022-12-07T11:20:19;26.55;;;15.10;;
43835;SDS011;39345;43.964;25.340;2022-12-07T11:30:58;26.15;;;15.13;;
43835;SDS011;39345;43.964;25.340;2022-12-07T11:33:40;27.85;;;16.42;;
43835;SDS011;39345;43.964;25.340;2022-12-07T11:36:25;25.05;;;14.80;;
43835;SDS011;39345;43.964;25.340;2022-12-07T11:39:01;24.35;;;13.98;;
43835;SDS011;39345;43.964;25.340;2022-12-07T11:41:34;24.33;;;15.07;;
43835;SDS011;39345;43.964;25.340;2022-12-07T11:44:06;22.02;;;14.20;;
43835;SDS011;39345;43.964;25.340;2022-12-07T11:46:46;24.63;;;14.40;;
43835;SDS011;39345;43.964;25.340;2022-12-07T11:49:23;32.67;;;15.57;;
43835;SDS011;39345;43.964;25.340;2022-12-07T11:51:54;23.25;;;13.80;;
43835;SDS011;39345;43.964;25.340;2022-12-07T11:54:26;23.40;;;14.15;;
43835;SDS011;39345;43.964;25.340;2022-12-07T11:56:56;35.28;;;18.33;;
43835;SDS011;39345;43.964;25.340;2022-12-07T11:59:31;31.88;;;17.75;;
43835;SDS011;39345;43.964;25.340;2022-12-07T12:02:03;31.20;;;18.48;;
43835;SDS011;39345;43.964;25.340;2022-12-07T12:07:17;30.42;;;17.60;;
43835;SDS011;39345;43.964;25.340;2022-12-07T12:10:14;28.92;;;17.20;;
43835;SDS011;39345;43.964;25.340;2022-12-07T12:18:36;35.53;;;20.55;;
43835;SDS011;39345;43.964;25.340;2022-12-07T12:20:57;34.78;;;20.65;;
43835;SDS011;39345;43.964;25.340;2022-12-07T12:23:41;31.58;;;19.98;;
43835;SDS011;39345;43.964;25.340;2022-12-07T12:26:17;33.67;;;19.88;;
43835;SDS011;39345;43.964;25.340;2022-12-07T12:29:06;32.50;;;19.48;;
43835;SDS011;39345;43.964;25.340;2022-12-07T12:31:38;44.70;;;24.48;;
43835;SDS011;39345;43.964;25.340;2022-12-07T12:36:59;30.08;;;16.50;;
43835;SDS011;39345;43.964;25.340;2022-12-07T12:39:27;30.85;;;17.58;;
43835;SDS011;39345;43.964;25.340;2022-12-07T12:41:56;29.35;;;17.08;;
43835;SDS011;39345;43.964;25.340;2022-12-07T12:47:03;35.00;;;19.20;;
43835;SDS011;39345;43.964;25.340;2022-12-07T12:49:32;31.02;;;18.27;;
43835;SDS011;39345;43.964;25.340;2022-12-07T12:55:20;29.75;;;17.42;;
43835;SDS011;39345;43.964;25.340;2022-12-07T12:57:39;29.38;;;17.60;;
43835;SDS011;39345;43.964;25.340;2022-12-07T13:00:20;33.38;;;19.00;;
43835;SDS011;39345;43.964;25.340;2022-12-07T13:05:20;35.45;;;19.70;;
43835;SDS011;39345;43.964;25.340;2022-12-07T13:07:50;33.88;;;18.92;;
43835;SDS011;39345;43.964;25.340;2022-12-07T13:20:49;32.60;;;17.90;;
43835;SDS011;39345;43.964;25.340;2022-12-07T13:23:18;33.70;;;18.23;;
43835;SDS011;39345;43.964;25.340;2022-12-07T13:25:49;34.90;;;19.50;;
43835;SDS011;39345;43.964;25.340;2022-12-07T13:28:18;57.20;;;26.65;;
43835;SDS011;39345;43.964;25.340;2022-12-07T13:33:17;36.90;;;19.02;;
43835;SDS011;39345;43.964;25.340;2022-12-07T13:35:46;34.15;;;17.75;;
43835;SDS011;39345;43.964;25.340;2022-12-07T13:38:24;37.60;;;22.88;;
43835;SDS011;39345;43.964;25.340;2022-12-07T13:41:03;41.67;;;21.70;;
43835;SDS011;39345;43.964;25.340;2022-12-07T13:43:31;34.42;;;17.63;;
43835;SDS011;39345;43.964;25.340;2022-12-07T13:45:58;34.80;;;18.13;;
43835;SDS011;39345;43.964;25.340;2022-12-07T13:48:31;34.38;;;18.50;;
43835;SDS011;39345;43.964;25.340;2022-12-07T13:51:00;33.72;;;17.95;;
43835;SDS011;39345;43.964;25.340;2022-12-07T13:53:27;34.05;;;18.88;;
43835;SDS011;39345;43.964;25.340;2022-12-07T13:55:57;30.17;;;17.08;;
43835;SDS011;39345;43.964;25.340;2022-12-07T13:58:25;38.15;;;18.98;;
43835;SDS011;39345;43.964;25.340;2022-12-07T14:00:53;38.97;;;20.02;;
43835;SDS011;39345;43.964;25.340;2022-12-07T14:03:31;41.78;;;21.17;;
43835;SDS011;39345;43.964;25.340;2022-12-07T14:06:19;37.88;;;19.92;;
43835;SDS011;39345;43.964;25.340;2022-12-07T14:08:47;35.15;;;19.90;;
43835;SDS011;39345;43.964;25.340;2022-12-07T14:11:22;42.30;;;22.08;;
43835;SDS011;39345;43.964;25.340;2022-12-07T14:13:51;40.38;;;21.85;;
43835;SDS011;39345;43.964;25.340;2022-12-07T14:18:55;42.20;;;22.17;;
43835;SDS011;39345;43.964;25.340;2022-12-07T14:21:24;50.03;;;27.02;;
43835;SDS011;39345;43.964;25.340;2022-12-07T14:24:04;46.90;;;25.42;;
43835;SDS011;39345;43.964;25.340;2022-12-07T14:26:34;44.95;;;24.25;;
43835;SDS011;39345;43.964;25.340;2022-12-07T14:31:48;49.10;;;25.27;;
43835;SDS011;39345;43.964;25.340;2022-12-07T14:34:16;56.85;;;29.42;;
43835;SDS011;39345;43.964;25.340;2022-12-07T14:36:43;58.13;;;29.88;;
43835;SDS011;39345;43.964;25.340;2022-12-07T14:39:11;52.80;;;28.95;;
43835;SDS011;39345;43.964;25.340;2022-12-07T14:41:39;48.55;;;30.20;;
43835;SDS011;39345;43.964;25.340;2022-12-07T14:44:20;71.57;;;41.47;;
43835;SDS011;39345;43.964;25.340;2022-12-07T14:46:52;44.75;;;25.27;;
43835;SDS011;39345;43.964;25.340;2022-12-07T14:49:39;68.82;;;37.00;;
43835;SDS011;39345;43.964;25.340;2022-12-07T14:52:11;67.75;;;35.80;;
43835;SDS011;39345;43.964;25.340;2022-12-07T14:55:00;50.45;;;26.90;;
43835;SDS011;39345;43.964;25.340;2022-12-07T14:57:28;50.80;;;29.67;;
43835;SDS011;39345;43.964;25.340;2022-12-07T14:59:56;54.33;;;29.55;;
43835;SDS011;39345;43.964;25.340;2022-12-07T15:02:23;54.00;;;27.13;;
43835;SDS011;39345;43.964;25.340;2022-12-07T15:04:50;59.33;;;33.13;;
43835;SDS011;39345;43.964;25.340;2022-12-07T15:07:19;73.82;;;46.80;;
43835;SDS011;39345;43.964;25.340;2022-12-07T15:09:47;121.18;;;69.80;;
43835;SDS011;39345;43.964;25.340;2022-12-07T15:12:15;144.18;;;71.18;;
43835;SDS011;39345;43.964;25.340;2022-12-07T15:14:42;97.20;;;51.05;;
43835;SDS011;39345;43.964;25.340;2022-12-07T15:17:10;89.90;;;47.38;;
43835;SDS011;39345;43.964;25.340;2022-12-07T15:19:55;92.43;;;49.35;;
43835;SDS011;39345;43.964;25.340;2022-12-07T15:22:22;105.38;;;55.80;;
43835;SDS011;39345;43.964;25.340;2022-12-07T15:24:50;60.25;;;30.35;;
43835;SDS011;39345;43.964;25.340;2022-12-07T15:27:17;58.17;;;30.65;;
43835;SDS011;39345;43.964;25.340;2022-12-07T15:29:45;58.47;;;33.80;;
43835;SDS011;39345;43.964;25.340;2022-12-07T15:32:12;61.92;;;38.45;;
43835;SDS011;39345;43.964;25.340;2022-12-07T15:34:40;53.22;;;31.95;;
43835;SDS011;39345;43.964;25.340;2022-12-07T15:37:07;62.83;;;42.13;;
43835;SDS011;39345;43.964;25.340;2022-12-07T15:39:35;60.47;;;39.58;;
43835;SDS011;39345;43.964;25.340;2022-12-07T15:42:03;58.10;;;34.42;;
43835;SDS011;39345;43.964;25.340;2022-12-07T15:44:30;53.17;;;26.88;;
43835;SDS011;39345;43.964;25.340;2022-12-07T15:47:16;51.42;;;26.67;;
43835;SDS011;39345;43.964;25.340;2022-12-07T15:49:44;56.80;;;29.30;;
43835;SDS011;39345;43.964;25.340;2022-12-07T15:52:11;68.05;;;33.70;;
43835;SDS011;39345;43.964;25.340;2022-12-07T15:54:39;65.22;;;33.75;;
43835;SDS011;39345;43.964;25.340;2022-12-07T15:57:06;59.13;;;31.08;;
43835;SDS011;39345;43.964;25.340;2022-12-07T15:59:34;65.10;;;31.45;;
43835;SDS011;39345;43.964;25.340;2022-12-07T16:02:02;62.15;;;31.15;;
43835;SDS011;39345;43.964;25.340;2022-12-07T16:04:29;61.63;;;31.98;;
43835;SDS011;39345;43.964;25.340;2022-12-07T16:06:57;59.88;;;32.10;;
43835;SDS011;39345;43.964;25.340;2022-12-07T16:09:25;56.65;;;29.98;;
43835;SDS011;39345;43.964;25.340;2022-12-07T16:11:53;58.22;;;29.75;;
43835;SDS011;39345;43.964;25.340;2022-12-07T16:14:21;56.60;;;30.75;;
43835;SDS011;39345;43.964;25.340;2022-12-07T16:16:48;56.60;;;32.63;;